createdAt,value
2023-02-05T00:00:01.321Z,95384.22
2023-02-05T00:02:29.512Z,95387.91
2023-02-05T00:04:57.445Z,95395.88
2023-02-05T00:07:26.705Z,95404.38
2023-02-05T00:10:12.068Z,95376.00
2023-02-05T00:12:39.979Z,95416.63
2023-02-05T00:15:08.804Z,95412.09
2023-02-05T00:17:37.392Z,95412.38
2023-02-05T00:20:05.886Z,95412.88
2023-02-05T00:22:35.190Z,95409.25
2023-02-05T00:25:03.279Z,95406.53
2023-02-05T00:27:31.142Z,95413.97
2023-02-05T00:29:59.303Z,95408.69
2023-02-05T00:32:27.268Z,95407.66
2023-02-05T00:34:55.160Z,95419.31
2023-02-05T00:37:23.012Z,95391.38
2023-02-05T00:39:53.635Z,95418.41
2023-02-05T00:42:21.556Z,95426.56
2023-02-05T00:44:49.423Z,95434.78
2023-02-05T00:47:17.291Z,95406.44
2023-02-05T00:49:45.202Z,95405.28
2023-02-05T00:52:14.175Z,95409.25
2023-02-05T00:54:43.145Z,95391.13
2023-02-05T00:57:12.399Z,95442.06
2023-02-05T00:59:40.290Z,95420.44
2023-02-05T01:02:08.177Z,95434.91
2023-02-05T01:04:36.032Z,95411.84
2023-02-05T01:07:03.907Z,95443.91
2023-02-05T01:09:31.771Z,95429.16
2023-02-05T01:12:00.720Z,95422.72
2023-02-05T01:14:29.965Z,95433.75
2023-02-05T01:16:57.801Z,95444.56
2023-02-05T01:19:25.666Z,95428.91
2023-02-05T01:21:53.528Z,95423.00
2023-02-05T01:24:21.383Z,95438.59
2023-02-05T01:26:49.326Z,95423.25
2023-02-05T01:29:17.310Z,95442.53
2023-02-05T01:31:46.688Z,95380.47
2023-02-05T01:34:15.805Z,95345.94
2023-02-05T01:36:43.658Z,95448.06
2023-02-05T01:39:11.532Z,95434.72
2023-02-05T01:41:41.975Z,95445.41
2023-02-05T01:44:12.767Z,95451.72
2023-02-05T01:46:43.047Z,95443.00
2023-02-05T01:49:18.912Z,95453.88
2023-02-05T01:51:48.772Z,95438.72
2023-02-05T01:54:19.720Z,95442.38
2023-02-05T01:56:53.637Z,95382.25
2023-02-05T01:59:24.646Z,95409.97
2023-02-05T02:01:52.901Z,95463.63
2023-02-05T02:04:35.686Z,95462.03
2023-02-05T02:07:04.970Z,95469.09
2023-02-05T02:09:33.943Z,95462.41
2023-02-05T02:12:02.464Z,95469.25
2023-02-05T02:14:34.273Z,95464.56
2023-02-05T02:17:04.436Z,95478.16
2023-02-05T02:19:39.287Z,95475.34
2023-02-05T02:22:40.123Z,95469.59
2023-02-05T02:25:45.211Z,95481.91
2023-02-05T02:28:22.543Z,95475.59
2023-02-05T02:31:00.917Z,95480.25
2023-02-05T02:33:35.964Z,95483.19
2023-02-05T02:36:14.527Z,95480.47
2023-02-05T02:38:45.663Z,95482.00
2023-02-05T02:41:21.416Z,95487.69
2023-02-05T02:43:54.429Z,95489.19
2023-02-05T02:46:26.910Z,95488.00
2023-02-05T02:48:58.400Z,95489.75
2023-02-05T02:51:29.526Z,95481.38
2023-02-05T02:54:03.791Z,95462.13
2023-02-05T02:56:33.898Z,95482.66
2023-02-05T02:59:07.510Z,95482.97
2023-02-05T03:01:39.817Z,95494.88
2023-02-05T03:04:12.670Z,95463.00
2023-02-05T03:06:44.660Z,95501.75
2023-02-05T03:09:19.702Z,95505.19
2023-02-05T03:11:47.965Z,95514.69
2023-02-05T03:14:17.215Z,95507.47
2023-02-05T03:16:46.449Z,95506.38
2023-02-05T03:19:16.603Z,95521.44
2023-02-05T03:21:49.431Z,95525.03
2023-02-05T03:24:18.677Z,95512.69
2023-02-05T03:26:47.705Z,95488.28
2023-02-05T03:29:19.461Z,95488.56
2023-02-05T03:31:59.152Z,95522.22
2023-02-05T03:34:37.971Z,95520.41
2023-02-05T03:37:14.959Z,95524.09
2023-02-05T03:39:58.589Z,95524.44
2023-02-05T03:42:37.000Z,95522.31
2023-02-05T03:45:40.261Z,95501.16
2023-02-05T03:48:24.640Z,95524.00
2023-02-05T03:50:56.844Z,95534.31
2023-02-05T03:53:50.276Z,95539.34
2023-02-05T03:56:25.542Z,95538.22
2023-02-05T03:58:56.701Z,95541.06
2023-02-05T04:01:25.837Z,95505.00
2023-02-05T04:03:55.253Z,95551.75
2023-02-05T04:06:23.153Z,95437.91
2023-02-05T04:08:51.059Z,95536.41
2023-02-05T04:11:19.011Z,95535.59
2023-02-05T04:13:49.004Z,95546.44
2023-02-05T04:16:16.947Z,95557.63
2023-02-05T04:18:44.873Z,95538.78
2023-02-05T04:21:14.146Z,95546.78
2023-02-05T04:23:42.025Z,95547.78
2023-02-05T04:26:09.930Z,95520.84
2023-02-05T04:28:37.790Z,95546.09
2023-02-05T04:31:08.557Z,95556.28
2023-02-05T04:33:36.660Z,95549.09
2023-02-05T04:36:05.011Z,95561.78
2023-02-05T04:38:34.488Z,95559.16
2023-02-05T04:41:02.640Z,95481.72
2023-02-05T04:43:30.506Z,95563.06
2023-02-05T04:45:58.404Z,95579.06
2023-02-05T04:48:26.372Z,95564.06
2023-02-05T04:50:54.274Z,95559.41
2023-02-05T04:53:22.133Z,95577.38
2023-02-05T04:55:51.415Z,95565.13
2023-02-05T04:58:21.109Z,95396.09
2023-02-05T05:00:48.979Z,95592.03
2023-02-05T05:03:16.907Z,95561.03
2023-02-05T05:05:45.405Z,95595.13
2023-02-05T05:08:13.251Z,95569.38
2023-02-05T05:10:41.099Z,95599.00
2023-02-05T05:13:10.316Z,95599.00
2023-02-05T05:15:38.476Z,95598.31
2023-02-05T05:18:06.556Z,95587.00
2023-02-05T05:20:34.432Z,95609.78
2023-02-05T05:23:02.346Z,95605.53
2023-02-05T05:25:30.207Z,95605.63
2023-02-05T05:27:58.080Z,95607.13
2023-02-05T05:30:27.414Z,95591.34
2023-02-05T05:32:55.267Z,95630.81
2023-02-05T05:35:23.192Z,95624.41
2023-02-05T05:37:51.145Z,95625.56
2023-02-05T05:40:36.920Z,95628.75
2023-02-05T05:43:22.119Z,95634.47
2023-02-05T05:45:51.604Z,95630.13
2023-02-05T05:48:19.562Z,95599.47
2023-02-05T05:50:47.754Z,95604.72
2023-02-05T05:53:15.742Z,95644.66
2023-02-05T05:55:44.022Z,95647.84
2023-02-05T05:58:11.983Z,95642.03
2023-02-05T06:00:40.906Z,95640.88
2023-02-05T06:03:11.572Z,95654.59
2023-02-05T06:05:39.562Z,95639.16
2023-02-05T06:08:07.831Z,95659.53
2023-02-05T06:10:36.237Z,95663.78
2023-02-05T06:13:05.120Z,95666.59
2023-02-05T06:15:33.556Z,95666.84
2023-02-05T06:18:01.874Z,95664.34
2023-02-05T06:20:31.682Z,95669.72
2023-02-05T06:22:59.555Z,95675.44
2023-02-05T06:25:27.636Z,95686.28
2023-02-05T06:27:55.507Z,95669.72
2023-02-05T06:30:23.374Z,95687.22
2023-02-05T06:32:51.288Z,95682.63
2023-02-05T06:35:19.331Z,95699.13
2023-02-05T06:37:48.654Z,95713.66
2023-02-05T06:40:18.303Z,95714.66
2023-02-05T06:42:46.864Z,95691.47
2023-02-05T06:45:15.128Z,95713.31
2023-02-05T06:47:43.045Z,95718.78
2023-02-05T06:50:11.468Z,95705.19
2023-02-05T06:52:39.715Z,95729.31
2023-02-05T06:55:09.689Z,95734.72
2023-02-05T06:57:37.595Z,95729.00
2023-02-05T07:00:09.691Z,95698.97
2023-02-05T07:02:38.067Z,95728.28
2023-02-05T07:05:06.178Z,95727.47
2023-02-05T07:07:34.652Z,95724.50
2023-02-05T07:10:02.769Z,95733.09
2023-02-05T07:12:32.498Z,95678.72
2023-02-05T07:15:00.444Z,95733.66
2023-02-05T07:17:28.438Z,95717.63
2023-02-05T07:19:56.466Z,95754.94
2023-02-05T07:22:24.494Z,95761.81
2023-02-05T07:24:52.385Z,95761.22
2023-02-05T07:27:20.268Z,95759.25
2023-02-05T07:29:49.617Z,95760.88
2023-02-05T07:32:17.503Z,95762.47
2023-02-05T07:34:45.396Z,95759.25
2023-02-05T07:37:14.345Z,95768.81
2023-02-05T07:39:42.272Z,95764.78
2023-02-05T07:42:10.142Z,95766.53
2023-02-05T07:44:38.095Z,95770.19
2023-02-05T07:47:07.352Z,95761.84
2023-02-05T07:49:36.009Z,95761.84
2023-02-05T07:52:03.911Z,95783.28
2023-02-05T07:54:31.816Z,95764.72
2023-02-05T07:57:00.719Z,95786.66
2023-02-05T07:59:29.217Z,95786.88
2023-02-05T08:01:57.109Z,95785.91
2023-02-05T08:04:26.343Z,95792.63
2023-02-05T08:06:54.315Z,95801.22
2023-02-05T08:09:22.181Z,95791.94
2023-02-05T08:11:50.263Z,95794.47
2023-02-05T08:14:18.294Z,95789.81
2023-02-05T08:16:46.187Z,95736.47
2023-02-05T08:19:15.892Z,95656.66
2023-02-05T08:21:45.618Z,95803.22
2023-02-05T08:24:14.161Z,95802.91
2023-02-05T08:26:42.190Z,95812.25
2023-02-05T08:29:12.260Z,95800.06
2023-02-05T08:31:40.187Z,95807.66
2023-02-05T08:34:08.314Z,95780.09
2023-02-05T08:36:36.192Z,95809.66
2023-02-05T08:39:05.690Z,95813.31
2023-02-05T08:41:33.717Z,95812.50
2023-02-05T08:44:01.656Z,95799.53
2023-02-05T08:46:37.413Z,95816.72
2023-02-05T08:49:16.986Z,95811.66
2023-02-05T08:51:45.119Z,95811.88
2023-02-05T08:54:15.299Z,95755.34
2023-02-05T08:56:44.861Z,95815.38
2023-02-05T08:59:13.279Z,95753.50
2023-02-05T09:01:42.988Z,95830.66
2023-02-05T09:04:15.016Z,95816.25
2023-02-05T09:06:43.206Z,95770.06
2023-02-05T09:09:11.686Z,95838.19
2023-02-05T09:11:41.651Z,95826.75
2023-02-05T09:14:10.337Z,95844.75
2023-02-05T09:16:38.453Z,95842.94
2023-02-05T09:19:07.455Z,95853.09
2023-02-05T09:21:35.454Z,95848.19
2023-02-05T09:24:03.429Z,95851.31
2023-02-05T09:26:31.408Z,95843.03
2023-02-05T09:29:00.730Z,95863.34
2023-02-05T09:31:29.140Z,95860.34
2023-02-05T09:33:57.614Z,95869.13
2023-02-05T09:36:25.694Z,95872.44
2023-02-05T09:39:12.007Z,95892.94
2023-02-05T09:41:52.881Z,95853.19
2023-02-05T09:44:41.233Z,95872.09
2023-02-05T09:47:16.827Z,95867.59
2023-02-05T09:49:55.192Z,95883.16
2023-02-05T09:52:27.316Z,95877.22
2023-02-05T09:55:01.613Z,95831.06
2023-02-05T09:57:35.041Z,95809.91
2023-02-05T10:00:13.626Z,95872.09
2023-02-05T10:02:50.138Z,95721.34
2023-02-05T10:05:19.418Z,95787.53
2023-02-05T10:07:57.470Z,95872.00
2023-02-05T10:10:28.033Z,95873.84
2023-02-05T10:13:19.823Z,95753.50
2023-02-05T10:16:04.488Z,95856.50
2023-02-05T10:18:45.415Z,95850.97
2023-02-05T10:21:31.446Z,95871.09
2023-02-05T10:24:17.933Z,95876.16
2023-02-05T10:26:49.893Z,95872.38
2023-02-05T10:29:28.475Z,95867.09
2023-02-05T10:32:07.638Z,95868.97
2023-02-05T10:34:51.554Z,95879.38
2023-02-05T10:37:31.218Z,95859.34
2023-02-05T10:40:00.507Z,95866.38
2023-02-05T10:42:33.055Z,95873.88
2023-02-05T10:45:07.325Z,95873.63
2023-02-05T10:47:50.066Z,95873.63
2023-02-05T10:50:25.753Z,95873.94
2023-02-05T10:52:53.769Z,95868.22
2023-02-05T10:55:21.784Z,95869.44
2023-02-05T10:57:49.753Z,95873.31
2023-02-05T11:00:21.363Z,95869.56
2023-02-05T11:02:54.879Z,95709.75
2023-02-05T11:05:27.591Z,95870.06
2023-02-05T11:07:55.902Z,95878.88
2023-02-05T11:10:25.735Z,95877.34
2023-02-05T11:12:56.840Z,95876.16
2023-02-05T11:15:27.472Z,95878.63
2023-02-05T11:18:00.245Z,95884.03
2023-02-05T11:20:34.040Z,95878.00
2023-02-05T11:23:15.563Z,95880.28
2023-02-05T11:25:51.816Z,95882.97
2023-02-05T11:28:25.687Z,95885.94
2023-02-05T11:30:54.500Z,95884.72
2023-02-05T11:33:29.967Z,95836.38
2023-02-05T11:36:01.385Z,95873.72
2023-02-05T11:38:44.837Z,95889.41
2023-02-05T11:41:15.558Z,95889.84
2023-02-05T11:43:50.615Z,95877.44
2023-02-05T11:46:22.285Z,95875.03
2023-02-05T11:48:59.003Z,95852.72
2023-02-05T11:51:41.117Z,95872.78
2023-02-05T11:54:27.211Z,95878.03
2023-02-05T11:57:07.206Z,95882.50
2023-02-05T11:59:35.853Z,95864.31
2023-02-05T12:02:30.557Z,95873.50
2023-02-05T12:05:08.639Z,95880.69
2023-02-05T12:07:42.188Z,95869.75
2023-02-05T12:10:17.724Z,95880.03
2023-02-05T12:12:54.024Z,95866.25
2023-02-05T12:15:26.800Z,95874.28
2023-02-05T12:18:07.801Z,95866.84
2023-02-05T12:20:41.027Z,95849.16
2023-02-05T12:23:32.409Z,95878.00
2023-02-05T12:26:35.043Z,95870.53
2023-02-05T12:29:15.258Z,95884.72
2023-02-05T12:31:53.103Z,95881.41
2023-02-05T12:34:27.865Z,95889.03
2023-02-05T12:37:19.382Z,95880.13
2023-02-05T12:39:53.618Z,95885.69
2023-02-05T12:42:31.346Z,95878.03
2023-02-05T12:45:20.112Z,95852.56
2023-02-05T12:48:10.701Z,95889.75
2023-02-05T12:51:02.674Z,95886.88
2023-02-05T12:53:55.058Z,95870.38
2023-02-05T12:56:36.797Z,95879.16
2023-02-05T12:59:12.982Z,95876.03
2023-02-05T13:01:46.308Z,95820.72
2023-02-05T13:04:25.129Z,95875.63
2023-02-05T13:06:58.302Z,95874.31
2023-02-05T13:09:36.801Z,95858.63
2023-02-05T13:12:09.727Z,95841.50
2023-02-05T13:14:42.096Z,95860.34
2023-02-05T13:17:16.768Z,95856.88
2023-02-05T13:19:49.317Z,95879.56
2023-02-05T13:22:39.762Z,95881.84
2023-02-05T13:25:38.812Z,95879.28
2023-02-05T13:28:41.638Z,95862.06
2023-02-05T13:31:25.465Z,95879.28
2023-02-05T13:33:55.009Z,95883.22
2023-02-05T13:37:04.522Z,95881.81
2023-02-05T13:40:06.613Z,95888.22
2023-02-05T13:43:09.482Z,95855.53
2023-02-05T13:46:10.828Z,95888.53
2023-02-05T13:49:16.000Z,95888.81
2023-02-05T13:51:52.082Z,95856.69
2023-02-05T13:54:51.812Z,95874.22
2023-02-05T13:58:09.808Z,95735.53
2023-02-05T14:00:40.989Z,95891.66
2023-02-05T14:03:10.204Z,95884.97
2023-02-05T14:05:42.598Z,95882.72
2023-02-05T14:08:23.155Z,95902.53
2023-02-05T14:11:00.544Z,95904.34
2023-02-05T14:13:33.735Z,95908.16
2023-02-05T14:16:35.141Z,95910.28
2023-02-05T14:19:16.174Z,95893.06
2023-02-05T14:22:03.746Z,95900.41
2023-02-05T14:24:58.554Z,95896.50
2023-02-05T14:27:57.133Z,95895.13
2023-02-05T14:30:48.923Z,95712.69
2023-02-05T14:33:38.004Z,95871.41
2023-02-05T14:36:31.811Z,95906.94
2023-02-05T14:39:03.040Z,95905.00
2023-02-05T14:41:35.964Z,95913.22
2023-02-05T14:44:07.745Z,95909.13
2023-02-05T14:46:40.641Z,95847.25
2023-02-05T14:49:21.873Z,95911.97
2023-02-05T14:51:54.703Z,95912.78
2023-02-05T14:54:25.056Z,95908.88
2023-02-05T14:56:55.079Z,95891.25
2023-02-05T14:59:29.332Z,95896.63
2023-02-05T15:02:00.148Z,95915.09
2023-02-05T15:04:42.043Z,95908.00
2023-02-05T15:07:14.079Z,95911.34
2023-02-05T15:09:45.954Z,95804.53
2023-02-05T15:12:48.247Z,95921.78
2023-02-05T15:15:32.889Z,95936.91
2023-02-05T15:18:10.365Z,95941.91
2023-02-05T15:20:40.568Z,95949.56
2023-02-05T15:23:19.619Z,95896.94
2023-02-05T15:25:54.748Z,95936.47
2023-02-05T15:28:28.984Z,95962.41
2023-02-05T15:31:10.221Z,95950.00
2023-02-05T15:33:48.142Z,95957.72
2023-02-05T15:36:27.306Z,95936.69
2023-02-05T15:39:10.466Z,95954.25
2023-02-05T15:41:43.505Z,95954.56
2023-02-05T15:44:22.101Z,95961.47
2023-02-05T15:46:50.797Z,95930.13
2023-02-05T15:49:22.155Z,95958.53
2023-02-05T15:51:50.508Z,95963.69
2023-02-05T15:54:22.112Z,95955.41
2023-02-05T15:56:53.172Z,95962.28
2023-02-05T15:59:25.070Z,95959.53
2023-02-05T16:02:02.287Z,95920.09
2023-02-05T16:04:34.099Z,95960.25
2023-02-05T16:07:03.204Z,95966.06
2023-02-05T16:09:32.404Z,95955.38
2023-02-05T16:12:12.568Z,95958.97
2023-02-05T16:14:40.600Z,95954.34
2023-02-05T16:17:13.549Z,95951.84
2023-02-05T16:19:49.399Z,95893.66
2023-02-05T16:22:36.851Z,95968.94
2023-02-05T16:25:08.805Z,95935.88
2023-02-05T16:27:42.350Z,95981.53
2023-02-05T16:30:23.632Z,95977.28
2023-02-05T16:32:57.065Z,95967.19
2023-02-05T16:35:30.509Z,95962.81
2023-02-05T16:37:58.653Z,95934.66
2023-02-05T16:40:36.549Z,95959.25
2023-02-05T16:43:20.794Z,95962.38
2023-02-05T16:46:26.619Z,95954.25
2023-02-05T16:48:57.306Z,95960.53
2023-02-05T16:51:36.541Z,95980.47
2023-02-05T16:54:27.081Z,95967.19
2023-02-05T16:56:59.809Z,95972.72
2023-02-05T16:59:31.405Z,95970.50
2023-02-05T17:02:00.466Z,95965.44
2023-02-05T17:04:32.720Z,95878.16
2023-02-05T17:07:04.512Z,95980.03
2023-02-05T17:09:35.665Z,95982.88
2023-02-05T17:12:26.920Z,95980.91
2023-02-05T17:14:57.462Z,95980.91
2023-02-05T17:17:27.828Z,95984.50
2023-02-05T17:20:21.289Z,95988.25
2023-02-05T17:23:15.483Z,95986.19
2023-02-05T17:25:51.364Z,95958.00
2023-02-05T17:28:21.901Z,95968.28
2023-02-05T17:30:50.843Z,95978.19
2023-02-05T17:33:21.116Z,95970.84
2023-02-05T17:35:49.186Z,95967.66
2023-02-05T17:38:20.494Z,95971.06
2023-02-05T17:40:48.790Z,95972.19
2023-02-05T17:43:16.751Z,95929.41
2023-02-05T17:45:44.827Z,95969.91
2023-02-05T17:48:12.827Z,95971.97
2023-02-05T17:50:40.788Z,95981.13
2023-02-05T17:53:14.119Z,95963.00
2023-02-05T17:55:43.428Z,95966.53
2023-02-05T17:58:11.585Z,95986.13
2023-02-05T18:00:39.490Z,95972.75
2023-02-05T18:03:07.381Z,95968.13
2023-02-05T18:05:35.338Z,95972.38
2023-02-05T18:08:03.556Z,95980.41
2023-02-05T18:10:32.826Z,95970.75
2023-02-05T18:13:03.355Z,95975.94
2023-02-05T18:15:32.973Z,95970.03
2023-02-05T18:18:01.163Z,95935.88
2023-02-05T18:20:29.081Z,95895.97
2023-02-05T18:22:57.269Z,95955.63
2023-02-05T18:25:25.113Z,95984.88
2023-02-05T18:27:53.575Z,95968.44
2023-02-05T18:30:23.448Z,95978.06
2023-02-05T18:32:52.524Z,95984.59
2023-02-05T18:35:20.576Z,95984.38
2023-02-05T18:37:48.467Z,95976.03
2023-02-05T18:40:16.667Z,95976.94
2023-02-05T18:42:47.111Z,95992.59
2023-02-05T18:45:15.336Z,95967.00
2023-02-05T18:47:44.657Z,95984.25
2023-02-05T18:50:12.912Z,95940.50
2023-02-05T18:52:40.772Z,95989.38
2023-02-05T18:55:08.967Z,95986.88
2023-02-05T18:57:37.004Z,95977.44
2023-02-05T19:00:05.542Z,95986.16
2023-02-05T19:02:35.179Z,95983.97
2023-02-05T19:05:04.699Z,95950.13
2023-02-05T19:07:32.607Z,95959.06
2023-02-05T19:10:02.893Z,95986.44
2023-02-05T19:12:31.491Z,95970.38
2023-02-05T19:14:59.466Z,95989.22
2023-02-05T19:17:28.691Z,95978.69
2023-02-05T19:19:57.526Z,95967.31
2023-02-05T19:22:26.995Z,95984.91
2023-02-05T19:24:55.213Z,95986.66
2023-02-05T19:27:23.168Z,95983.09
2023-02-05T19:29:51.171Z,95984.78
2023-02-05T19:32:19.082Z,95985.63
2023-02-05T19:34:46.983Z,95995.59
2023-02-05T19:37:14.876Z,95991.88
2023-02-05T19:39:44.229Z,95981.72
2023-02-05T19:42:12.131Z,95994.50
2023-02-05T19:44:40.100Z,95993.25
2023-02-05T19:47:08.874Z,95985.72
2023-02-05T19:49:39.778Z,95991.56
2023-02-05T19:52:09.570Z,95992.25
2023-02-05T19:54:38.575Z,95979.13
2023-02-05T19:57:07.940Z,95989.66
2023-02-05T19:59:35.817Z,95986.44
2023-02-05T20:02:04.096Z,95991.28
2023-02-05T20:04:32.119Z,95993.34
2023-02-05T20:07:01.191Z,95988.66
2023-02-05T20:09:29.473Z,95995.97
2023-02-05T20:11:57.454Z,95996.97
2023-02-05T20:14:26.792Z,96002.69
2023-02-05T20:16:55.281Z,95988.59
2023-02-05T20:19:23.347Z,95990.28
2023-02-05T20:21:51.229Z,95999.47
2023-02-05T20:24:19.142Z,96005.31
2023-02-05T20:26:48.870Z,96005.09
2023-02-05T20:29:35.061Z,96013.00
2023-02-05T20:32:05.967Z,96011.63
2023-02-05T20:34:36.270Z,96010.00
2023-02-05T20:37:07.258Z,96017.41
2023-02-05T20:39:38.708Z,96015.63
2023-02-05T20:42:07.026Z,96007.94
2023-02-05T20:44:36.186Z,96022.38
2023-02-05T20:47:07.434Z,96010.88
2023-02-05T20:49:36.102Z,96025.34
2023-02-05T20:52:04.092Z,96018.03
2023-02-05T20:54:33.069Z,95966.44
2023-02-05T20:57:00.957Z,96029.47
2023-02-05T20:59:32.799Z,96029.81
2023-02-05T21:02:01.130Z,96034.22
2023-02-05T21:04:31.846Z,96031.50
2023-02-05T21:06:59.818Z,96034.50
2023-02-05T21:09:28.616Z,96027.84
2023-02-05T21:11:56.526Z,96037.50
2023-02-05T21:14:25.109Z,96039.09
2023-02-05T21:16:53.054Z,96034.25
2023-02-05T21:19:21.043Z,96007.38
2023-02-05T21:21:51.272Z,96042.09
2023-02-05T21:24:20.671Z,96032.25
2023-02-05T21:26:49.989Z,96031.84
2023-02-05T21:29:20.407Z,96038.09
2023-02-05T21:31:50.354Z,96042.88
2023-02-05T21:34:21.814Z,95841.19
2023-02-05T21:36:51.717Z,96042.63
2023-02-05T21:39:21.358Z,96043.94
2023-02-05T21:41:50.762Z,96057.38
2023-02-05T21:44:19.049Z,96052.78
2023-02-05T21:46:46.967Z,96039.59
2023-02-05T21:49:14.962Z,96058.56
2023-02-05T21:51:43.449Z,96057.38
2023-02-05T21:54:13.154Z,96061.63
2023-02-05T21:56:42.939Z,96061.63
2023-02-05T21:59:11.407Z,96060.47
2023-02-05T22:01:40.262Z,96060.22
2023-02-05T22:04:11.699Z,96072.00
2023-02-05T22:06:40.202Z,96068.78
2023-02-05T22:09:10.344Z,96068.41
2023-02-05T22:11:40.548Z,95984.00
2023-02-05T22:14:09.140Z,96035.75
2023-02-05T22:16:38.180Z,96067.97
2023-02-05T22:19:06.782Z,96062.94
2023-02-05T22:21:36.472Z,96082.38
2023-02-05T22:24:06.312Z,96077.19
2023-02-05T22:26:36.652Z,96027.41
2023-02-05T22:29:07.521Z,96077.25
2023-02-05T22:31:36.264Z,96055.97
2023-02-05T22:34:04.986Z,96078.06
2023-02-05T22:36:34.635Z,96013.00
2023-02-05T22:39:03.182Z,96082.22
2023-02-05T22:41:33.226Z,96075.41
2023-02-05T22:44:02.678Z,96084.84
2023-02-05T22:46:34.562Z,96074.16
2023-02-05T22:49:03.989Z,95918.16
2023-02-05T22:51:33.687Z,96078.16
2023-02-05T22:54:01.595Z,96084.03
2023-02-05T22:56:30.332Z,96073.00
2023-02-05T22:58:59.668Z,96062.16
2023-02-05T23:01:31.977Z,96006.84
2023-02-05T23:04:00.406Z,96063.38
2023-02-05T23:06:30.146Z,96060.13
2023-02-05T23:09:00.396Z,96069.06
2023-02-05T23:11:30.793Z,96054.88
2023-02-05T23:13:59.678Z,96063.06
2023-02-05T23:16:29.289Z,96055.25
2023-02-05T23:19:00.297Z,96062.06
2023-02-05T23:21:29.733Z,96059.28
2023-02-05T23:23:58.373Z,96047.59
2023-02-05T23:26:28.809Z,96052.63
2023-02-05T23:28:57.785Z,96062.91
2023-02-05T23:31:27.088Z,96055.75
2023-02-05T23:33:55.562Z,96055.72
2023-02-05T23:36:24.918Z,96044.34
2023-02-05T23:38:52.969Z,96064.16
2023-02-05T23:41:35.847Z,96067.00
2023-02-05T23:44:05.916Z,96057.72
2023-02-05T23:46:34.126Z,96063.94
2023-02-05T23:49:02.051Z,96050.91
2023-02-05T23:51:31.592Z,96070.94
2023-02-05T23:53:59.601Z,96060.25
2023-02-05T23:56:27.675Z,96067.44
2023-02-05T23:58:55.565Z,96077.31
